7NC6 weather

Kimrey Airport
Mebane, North Carolina, United States

Public forecast

Using degrees Fahrenheit for public forecast. Weather courtesy of forecast.io.

METAR (pilot weather report)

Closest report is Burlington Alamance Regional Airport, 7.2 nm (13.3 km) W. Retrieved 2019/07/19 07:54 UTC (14 minutes ago):

KBUY 190754Z AUTO 00000KT 10SM CLR 24/22 A2998 RMK AO2 SLP142 T02390217

TAF (pilot weather forecast)

Closest forecast is Raleigh Durham International Airport, 28.3 nm (52.4 km) ESE. Retrieved 2019/07/19 06:45 UTC (1 hour ago):

TAF KRDU 190538Z 1906/2006 22007KT P6SM SCT250 FM191500 25006KT P6SM SCT040 FM192100 21008KT P6SM SCT050 BKN080